Willow Grove, PA (19090)

4:28 PM EST on December 22, 2014 (GMT -0500)
Fitzwatertown | Change Station
CLOSE
Current Station
Personal Weather Station
Location: Willow Grove, PA
Elevation: 295 ft
Nearby Weather Stations

Elev 295 ft 40.15 °N, 75.13 °W | Updated 13 minutes ago

Overcast
Overcast
40.9 °F
Feels Like 41 °F
N
1.0
Wind Variable Wind from NNW
Gusts 3.0 mph

Today
High -- | Low -- °F
--% Chance of Precip.
Yesterday
High -- | Low -- °F
Precip. -- in
7:19 AM 4:38 PM
New Moon, 1% visible
Pressure 30.22 in
Visibility 5.0 miles
Clouds Scattered Clouds 1100 ft
Overcast 8000 ft
Windchill 41 °F
Dew Point 37 °F
Humidity 86%
Rainfall 0.00 in
Snow Depth Not available.
UV 0 out of 12
Pollen .10 out of 12
Air Quality Not available.
Flu Activity Not available.
SPECI KPNE 222103Z AUTO 05007KT 5SM HZ SCT011 OVC080 06/02 A3022 RMK AO2 T00610017 TSNO

More Conditions Fewer Conditions

Pressure 30.22 in
Visibility 5.0 miles
Clouds Scattered Clouds 1100 ft
Overcast 8000 ft
Windchill 41 °F
Dew Point 37 °F
Humidity 86%
Rainfall 0.00 in
Snow Depth Not available.
UV 0 out of 12
Pollen .10 out of 12
Air Quality Not available.
Flu Activity Not available.
SPECI KPNE 222103Z AUTO 05007KT 5SM HZ SCT011 OVC080 06/02 A3022 RMK AO2 T00610017 TSNO

More Conditions Fewer Conditions

10-Day Weather Forecast

Almanac

Astronomy

Dec. 22, 2014 Rise Set
Actual Time
Civil Twilight
Nautical Twilight
Astronomical Twilight
Moon
Length of Visible Light
Length of Day
Tomorrow will be .
, % of the Moon is Illuminated

Today's Extremes

State Highs State Lows

Community

WunderPhotos

Upload Photos

1,779,682 photos uploaded!

WunderBlogs® & News

Nearby

Air Quality

  Air Quality AQ Index Pollutant
Not available.

Snow Depth

Station Depth Elevation

Earthquake Activity

City Distance Mag. Time & Date
Minimum magnitude displayed is 2.5.

Coastal Water Temperatures

Place Temperature

Nearby Weather Stations